createdAt,value
2023-01-29T00:02:10.082Z,74.40
2023-01-29T00:04:40.893Z,74.30
2023-01-29T00:07:11.718Z,74.20
2023-01-29T00:09:42.471Z,73.80
2023-01-29T00:12:13.338Z,73.70
2023-01-29T00:14:44.033Z,73.40
2023-01-29T00:17:14.776Z,73.40
2023-01-29T00:19:45.551Z,73.50
2023-01-29T00:22:16.220Z,73.20
2023-01-29T00:24:46.918Z,73.30
2023-01-29T00:27:17.661Z,73.30
2023-01-29T00:29:49.832Z,73.30
2023-01-29T00:32:20.665Z,73.20
2023-01-29T00:34:51.470Z,72.90
2023-01-29T00:37:22.255Z,72.70
2023-01-29T00:39:52.965Z,72.40
2023-01-29T00:42:41.584Z,72.30
2023-01-29T00:45:13.305Z,71.90
2023-01-29T00:47:44.184Z,71.70
2023-01-29T00:50:21.340Z,71.30
2023-01-29T00:52:52.280Z,71.00
2023-01-29T00:55:24.785Z,70.80
2023-01-29T00:57:55.764Z,70.80
2023-01-29T01:00:26.970Z,70.40
2023-01-29T01:03:10.019Z,69.80
2023-01-29T01:05:40.669Z,69.50
2023-01-29T01:08:29.592Z,69.90
2023-01-29T01:11:09.530Z,69.40
2023-01-29T01:13:40.263Z,69.00
2023-01-29T01:16:19.689Z,69.00
2023-01-29T01:18:53.934Z,68.50
2023-01-29T01:21:24.657Z,68.60
2023-01-29T01:23:55.376Z,68.60
2023-01-29T01:26:26.404Z,68.00
2023-01-29T01:29:01.684Z,68.10
2023-01-29T01:31:37.640Z,67.10
2023-01-29T01:34:08.509Z,66.40
2023-01-29T01:36:39.199Z,66.50
2023-01-29T01:39:14.092Z,66.50
2023-01-29T01:41:44.913Z,66.30
2023-01-29T01:44:52.465Z,65.70
2023-01-29T01:47:28.204Z,65.80
2023-01-29T01:50:03.199Z,65.30
2023-01-29T01:52:35.311Z,65.20
2023-01-29T01:55:07.293Z,64.70
2023-01-29T01:57:38.664Z,64.30
2023-01-29T02:00:12.232Z,64.20
2023-01-29T02:03:02.938Z,64.10
2023-01-29T02:05:55.960Z,63.60
2023-01-29T02:09:04.699Z,63.70
2023-01-29T02:11:35.578Z,63.90
2023-01-29T02:14:06.448Z,63.90
2023-01-29T02:20:19.732Z,62.30
2023-01-29T02:23:15.318Z,61.70
2023-01-29T02:25:54.406Z,61.40
2023-01-29T02:28:27.519Z,61.70
2023-01-29T02:31:29.329Z,60.40
2023-01-29T02:34:05.364Z,59.90
2023-01-29T02:36:50.566Z,59.60
2023-01-29T02:39:26.109Z,59.10
2023-01-29T02:42:19.267Z,58.20
2023-01-29T02:45:04.777Z,58.60
2023-01-29T02:47:41.178Z,58.70
2023-01-29T02:50:17.921Z,57.90
2023-01-29T02:52:55.276Z,57.30
2023-01-29T02:55:42.910Z,57.70
2023-01-29T02:58:22.073Z,58.00
2023-01-29T03:00:55.657Z,57.80
2023-01-29T03:03:44.092Z,57.30
2023-01-29T03:06:21.564Z,56.90
2023-01-29T03:09:00.369Z,56.20
2023-01-29T03:11:33.669Z,55.50
2023-01-29T03:14:29.535Z,55.50
2023-01-29T03:17:00.775Z,55.20
2023-01-29T03:19:42.831Z,55.70
2023-01-29T03:22:18.618Z,55.70
2023-01-29T03:25:14.852Z,55.50
2023-01-29T03:28:05.728Z,54.90
2023-01-29T03:30:56.626Z,54.20
2023-01-29T03:33:28.914Z,54.20
2023-01-29T03:36:11.215Z,53.40
2023-01-29T03:38:42.123Z,53.00
2023-01-29T03:41:18.101Z,53.00
2023-01-29T03:43:53.865Z,53.20
2023-01-29T03:46:36.996Z,52.30
2023-01-29T03:49:13.305Z,52.30
2023-01-29T03:51:55.323Z,51.80
2023-01-29T03:54:40.481Z,51.40
2023-01-29T03:57:19.405Z,51.20
2023-01-29T04:00:18.083Z,50.90
2023-01-29T04:03:17.290Z,50.80
2023-01-29T04:06:03.433Z,50.70
2023-01-29T04:08:36.826Z,50.10
2023-01-29T04:11:10.072Z,50.10
2023-01-29T04:13:42.549Z,49.90
2023-01-29T04:16:15.806Z,49.50
2023-01-29T04:18:49.335Z,49.60
2023-01-29T04:21:21.210Z,49.40
2023-01-29T04:23:51.933Z,49.90
2023-01-29T04:26:31.447Z,48.50
2023-01-29T04:29:13.656Z,48.80
2023-01-29T04:31:50.077Z,48.30
2023-01-29T04:34:52.756Z,48.30
2023-01-29T04:37:40.765Z,47.80
2023-01-29T04:40:33.189Z,47.40
2023-01-29T04:43:27.579Z,47.30
2023-01-29T04:46:24.853Z,46.80
2023-01-29T04:49:09.796Z,47.10
2023-01-29T04:51:51.971Z,47.10
2023-01-29T04:54:28.141Z,47.20
2023-01-29T04:57:01.354Z,47.30
2023-01-29T04:59:37.434Z,46.90
2023-01-29T05:02:10.858Z,46.80
2023-01-29T05:04:43.877Z,46.80
2023-01-29T05:07:17.420Z,46.40
2023-01-29T05:09:49.315Z,46.20
2023-01-29T05:12:20.814Z,46.00
2023-01-29T05:14:53.508Z,45.50
2023-01-29T05:17:24.394Z,45.80
2023-01-29T05:19:55.184Z,45.80
2023-01-29T05:22:28.435Z,45.80
2023-01-29T05:24:58.581Z,45.50
2023-01-29T05:27:54.811Z,45.40
2023-01-29T05:30:25.490Z,45.40
2023-01-29T05:32:56.158Z,45.40
2023-01-29T05:35:27.044Z,45.10
2023-01-29T05:37:58.908Z,45.20
2023-01-29T05:40:29.939Z,45.50
2023-01-29T05:43:00.637Z,44.50
2023-01-29T05:45:31.466Z,44.80
2023-01-29T05:48:02.678Z,44.80
2023-01-29T05:50:33.545Z,44.60
2023-01-29T05:53:05.021Z,45.00
2023-01-29T05:55:35.704Z,45.00
2023-01-29T05:58:07.784Z,44.30
2023-01-29T06:00:38.786Z,44.10
2023-01-29T06:03:09.873Z,44.60
2023-01-29T06:05:44.095Z,44.60
2023-01-29T06:08:14.789Z,44.30
2023-01-29T06:10:47.676Z,43.90
2023-01-29T06:13:17.773Z,44.40
2023-01-29T06:15:49.048Z,44.30
2023-01-29T06:18:22.491Z,44.70
2023-01-29T06:20:53.272Z,44.30
2023-01-29T06:23:23.948Z,44.20
2023-01-29T06:25:54.622Z,43.90
2023-01-29T06:28:25.435Z,44.00
2023-01-29T06:30:58.262Z,43.50
2023-01-29T06:33:29.943Z,43.90
2023-01-29T06:36:06.677Z,43.40
2023-01-29T06:38:39.280Z,43.80
2023-01-29T06:41:14.360Z,44.00
2023-01-29T06:43:47.010Z,44.10
2023-01-29T06:46:18.239Z,44.50
2023-01-29T06:48:48.929Z,43.80
2023-01-29T06:51:21.554Z,43.80
2023-01-29T06:53:54.220Z,43.90
2023-01-29T06:56:25.262Z,43.50
2023-01-29T06:58:57.793Z,44.00
2023-01-29T07:01:36.138Z,43.70
2023-01-29T07:04:00.549Z,43.40
2023-01-29T07:06:32.164Z,43.70
2023-01-29T07:09:05.342Z,43.60
2023-01-29T07:11:39.003Z,43.70
2023-01-29T07:14:10.002Z,44.60
2023-01-29T07:16:40.683Z,43.30
2023-01-29T07:19:11.373Z,44.00
2023-01-29T07:21:42.047Z,43.60
2023-01-29T07:24:12.797Z,43.10
2023-01-29T07:26:43.584Z,43.80
2023-01-29T07:29:14.483Z,43.50
2023-01-29T07:31:45.283Z,43.70
2023-01-29T07:34:16.133Z,43.50
2023-01-29T07:36:46.820Z,43.30
2023-01-29T07:39:17.677Z,43.40
2023-01-29T07:41:50.201Z,43.50
2023-01-29T07:44:20.878Z,43.90
2023-01-29T07:46:51.671Z,43.70
2023-01-29T07:49:22.771Z,43.70
2023-01-29T07:51:53.455Z,43.90
2023-01-29T07:54:24.366Z,43.60
2023-01-29T07:56:55.312Z,43.70
2023-01-29T07:59:26.107Z,44.10
2023-01-29T08:01:57.037Z,44.30
2023-01-29T08:04:27.920Z,43.90
2023-01-29T08:06:58.813Z,44.30
2023-01-29T08:09:29.603Z,44.30
2023-01-29T08:12:03.444Z,44.10
2023-01-29T08:14:35.097Z,43.90
2023-01-29T08:17:05.835Z,44.20
2023-01-29T08:19:36.544Z,44.30
2023-01-29T08:22:07.992Z,44.40
2023-01-29T08:24:53.322Z,44.70
2023-01-29T08:27:11.311Z,44.80
2023-01-29T08:29:42.096Z,44.60
2023-01-29T08:32:13.168Z,44.10
2023-01-29T08:34:43.830Z,44.30
2023-01-29T08:37:14.574Z,44.70
2023-01-29T08:39:45.265Z,44.90
2023-01-29T08:42:16.058Z,44.90
2023-01-29T08:44:46.734Z,45.00
2023-01-29T08:47:17.496Z,44.80
2023-01-29T08:49:49.765Z,44.80
2023-01-29T08:52:20.422Z,44.70
2023-01-29T08:54:51.135Z,45.00
2023-01-29T08:57:21.836Z,45.00
2023-01-29T08:59:52.613Z,45.30
2023-01-29T09:02:23.377Z,45.50
2023-01-29T09:04:54.071Z,45.30
2023-01-29T09:07:24.941Z,45.00
2023-01-29T09:09:56.631Z,45.00
2023-01-29T09:12:27.620Z,45.50
2023-01-29T09:14:58.432Z,45.00
2023-01-29T09:17:29.096Z,45.00
2023-01-29T09:19:59.909Z,45.10
2023-01-29T09:22:30.934Z,45.50
2023-01-29T09:25:01.634Z,45.70
2023-01-29T09:27:32.509Z,45.80
2023-01-29T09:30:03.481Z,45.20
2023-01-29T09:32:53.576Z,45.30
2023-01-29T09:35:07.162Z,45.60
2023-01-29T09:37:38.095Z,46.00
2023-01-29T09:40:10.178Z,46.00
2023-01-29T09:42:49.667Z,46.10
2023-01-29T09:45:32.298Z,46.30
2023-01-29T09:48:06.928Z,46.30
2023-01-29T09:50:49.313Z,46.30
2023-01-29T09:53:25.540Z,46.20
2023-01-29T09:56:01.546Z,46.30
2023-01-29T09:58:34.786Z,46.30
2023-01-29T10:01:44.393Z,46.70
2023-01-29T10:04:38.529Z,46.90
2023-01-29T10:07:39.093Z,47.10
2023-01-29T10:10:12.615Z,46.80
2023-01-29T10:13:14.511Z,46.90
2023-01-29T10:16:10.336Z,47.20
2023-01-29T10:18:52.546Z,47.50
2023-01-29T10:21:46.609Z,47.60
2023-01-29T10:24:22.586Z,47.50
2023-01-29T10:26:54.818Z,47.60
2023-01-29T10:29:26.351Z,47.70
2023-01-29T10:32:00.744Z,48.20
2023-01-29T10:34:34.078Z,48.20
2023-01-29T10:37:06.341Z,48.40
2023-01-29T10:39:37.501Z,48.60
2023-01-29T10:42:33.159Z,48.70
2023-01-29T10:45:08.897Z,49.00
2023-01-29T10:47:57.023Z,49.20
2023-01-29T10:50:48.131Z,49.50
2023-01-29T10:53:42.674Z,49.80
2023-01-29T10:56:32.464Z,50.00
2023-01-29T10:59:06.537Z,50.00
2023-01-29T11:01:37.307Z,50.10
2023-01-29T11:04:10.571Z,50.20
2023-01-29T11:06:41.722Z,50.20
2023-01-29T11:09:20.843Z,50.30
2023-01-29T11:11:55.996Z,50.50
2023-01-29T11:14:29.205Z,50.50
2023-01-29T11:17:00.153Z,50.60
2023-01-29T11:19:42.703Z,50.70
2023-01-29T11:22:18.864Z,50.90
2023-01-29T11:24:51.228Z,51.10
2023-01-29T11:27:30.891Z,51.20
2023-01-29T11:30:01.981Z,51.40
2023-01-29T11:32:35.416Z,51.40
2023-01-29T11:35:20.414Z,51.50
2023-01-29T11:37:52.723Z,51.60
2023-01-29T11:40:26.060Z,51.70
2023-01-29T11:42:56.893Z,51.90
2023-01-29T11:45:33.768Z,52.00
2023-01-29T11:48:04.930Z,52.10
2023-01-29T11:50:48.615Z,52.90
2023-01-29T11:53:43.465Z,52.20
2023-01-29T11:56:26.940Z,52.20
2023-01-29T11:58:59.260Z,52.10
2023-01-29T12:01:35.526Z,52.20
2023-01-29T12:04:19.067Z,52.30
2023-01-29T12:06:53.853Z,52.40
2023-01-29T12:09:31.128Z,52.50
2023-01-29T12:14:57.714Z,52.70
2023-01-29T12:17:36.164Z,52.70
2023-01-29T12:20:21.085Z,52.70
2023-01-29T12:23:01.265Z,52.80
2023-01-29T12:25:39.865Z,52.90
2023-01-29T12:28:25.468Z,53.00
2023-01-29T12:31:16.912Z,53.00
2023-01-29T12:34:02.060Z,53.00
2023-01-29T12:36:41.067Z,53.00
2023-01-29T12:39:14.391Z,53.00
2023-01-29T12:41:47.661Z,53.20
2023-01-29T12:44:21.291Z,53.30
2023-01-29T12:46:57.332Z,53.60
2023-01-29T12:49:36.602Z,53.70
2023-01-29T12:52:27.963Z,53.80
2023-01-29T12:55:04.193Z,54.10
2023-01-29T12:57:52.624Z,54.20
2023-01-29T13:00:38.178Z,54.30
2023-01-29T13:03:26.209Z,54.30
2023-01-29T13:05:59.487Z,54.50
2023-01-29T13:08:41.561Z,54.60
2023-01-29T13:11:17.439Z,54.60
2023-01-29T13:14:09.071Z,54.70
2023-01-29T13:16:42.478Z,54.90
2023-01-29T13:19:23.029Z,55.00
2023-01-29T13:22:01.113Z,55.00
2023-01-29T13:24:40.241Z,55.00
2023-01-29T13:27:13.584Z,55.00
2023-01-29T13:29:45.706Z,55.20
2023-01-29T13:32:18.949Z,55.30
2023-01-29T13:34:55.022Z,55.50
2023-01-29T13:37:30.973Z,55.80
2023-01-29T13:40:03.793Z,56.10
2023-01-29T13:42:51.840Z,56.40
2023-01-29T13:45:25.008Z,56.80
2023-01-29T13:47:56.487Z,57.00
2023-01-29T13:50:35.859Z,57.30
2023-01-29T13:53:09.339Z,57.40
2023-01-29T13:55:41.747Z,57.50
2023-01-29T13:58:17.993Z,57.50
2023-01-29T14:00:51.208Z,57.40
2023-01-29T14:03:29.995Z,57.40
2023-01-29T14:06:03.471Z,57.60
2023-01-29T14:08:42.615Z,57.40
2023-01-29T14:11:19.117Z,57.40
2023-01-29T14:13:52.999Z,57.60
2023-01-29T14:16:26.368Z,57.70
2023-01-29T14:19:04.942Z,57.80
2023-01-29T14:21:40.845Z,57.70
2023-01-29T14:24:23.440Z,57.70
2023-01-29T14:26:58.353Z,57.80
2023-01-29T14:29:35.541Z,58.00
2023-01-29T14:32:29.256Z,58.30
2023-01-29T14:35:05.218Z,58.60
2023-01-29T14:37:41.218Z,58.80
2023-01-29T14:40:25.319Z,59.10
2023-01-29T14:43:15.069Z,59.20
2023-01-29T14:45:46.288Z,59.40
2023-01-29T14:48:40.489Z,59.70
2023-01-29T14:51:19.916Z,59.70
2023-01-29T14:53:56.250Z,59.70
2023-01-29T14:56:38.365Z,59.90
2023-01-29T14:59:17.772Z,60.10
2023-01-29T15:01:51.604Z,59.80
2023-01-29T15:04:26.193Z,59.90
2023-01-29T15:07:12.891Z,60.00
2023-01-29T15:10:18.937Z,60.20
2023-01-29T15:12:50.114Z,60.30
2023-01-29T15:15:33.714Z,60.50
2023-01-29T15:18:27.893Z,60.70
2023-01-29T15:21:15.673Z,60.60
2023-01-29T15:23:52.854Z,61.00
2023-01-29T15:26:27.366Z,61.00
2023-01-29T15:29:04.853Z,61.40
2023-01-29T15:31:33.021Z,61.60
2023-01-29T15:34:06.506Z,61.60
2023-01-29T15:36:40.287Z,61.90
2023-01-29T15:39:19.289Z,62.10
2023-01-29T15:41:52.032Z,62.30
2023-01-29T15:44:24.812Z,62.30
2023-01-29T15:46:58.111Z,62.30
2023-01-29T15:49:40.295Z,62.30
2023-01-29T15:52:25.298Z,62.30
2023-01-29T15:54:57.470Z,62.20
2023-01-29T15:57:30.768Z,62.10
2023-01-29T16:00:02.060Z,62.20
2023-01-29T16:02:39.057Z,62.20
2023-01-29T16:05:10.059Z,62.10
2023-01-29T16:07:41.645Z,62.00
2023-01-29T16:10:16.743Z,62.00
2023-01-29T16:12:52.211Z,62.10
2023-01-29T16:15:41.341Z,63.00
2023-01-29T16:18:29.275Z,62.00
2023-01-29T16:21:02.516Z,62.20
2023-01-29T16:23:36.022Z,62.30
2023-01-29T16:26:12.479Z,62.40
2023-01-29T16:28:45.204Z,62.50
2023-01-29T16:31:17.851Z,62.80
2023-01-29T16:33:50.697Z,62.90
2023-01-29T16:36:29.269Z,63.10
2023-01-29T16:39:05.581Z,63.20
2023-01-29T16:41:39.283Z,63.20
2023-01-29T16:44:27.837Z,63.00
2023-01-29T16:46:58.629Z,62.70
2023-01-29T16:49:34.440Z,62.50
2023-01-29T16:52:24.236Z,62.40
2023-01-29T16:54:56.499Z,62.30
2023-01-29T16:57:34.182Z,62.00
2023-01-29T17:00:08.865Z,62.10
2023-01-29T17:02:44.047Z,62.20
2023-01-29T17:05:17.463Z,62.40
2023-01-29T17:07:52.940Z,62.60
2023-01-29T17:10:32.746Z,62.70
2023-01-29T17:13:11.407Z,63.10
2023-01-29T17:15:47.762Z,63.60
2023-01-29T17:18:21.212Z,63.90
2023-01-29T17:20:55.405Z,64.00
2023-01-29T17:23:26.579Z,64.10
2023-01-29T17:25:57.516Z,64.40
2023-01-29T17:28:28.497Z,64.80
2023-01-29T17:31:06.324Z,64.80
2023-01-29T17:33:31.400Z,64.90
2023-01-29T17:36:02.086Z,65.00
2023-01-29T17:38:33.007Z,65.00
2023-01-29T17:41:06.316Z,65.30
2023-01-29T17:43:37.998Z,65.50
2023-01-29T17:46:10.264Z,65.80
2023-01-29T17:48:41.208Z,66.10
2023-01-29T17:51:17.511Z,66.20
2023-01-29T17:53:48.501Z,66.30
2023-01-29T17:56:31.730Z,66.40
2023-01-29T17:59:02.937Z,66.40
2023-01-29T18:01:33.666Z,67.10
2023-01-29T18:04:04.448Z,67.40
2023-01-29T18:06:35.299Z,67.60
2023-01-29T18:09:07.649Z,67.70
2023-01-29T18:11:38.784Z,68.00
2023-01-29T18:14:13.910Z,68.20
2023-01-29T18:16:43.137Z,68.70
2023-01-29T18:19:26.821Z,69.10
2023-01-29T18:21:58.933Z,69.20
2023-01-29T18:24:29.612Z,69.50
2023-01-29T18:27:00.302Z,69.70
2023-01-29T18:29:31.417Z,69.70
2023-01-29T18:32:02.329Z,69.60
2023-01-29T18:34:33.281Z,69.70
2023-01-29T18:37:04.244Z,69.60
2023-01-29T18:39:34.963Z,69.60
2023-01-29T18:42:06.732Z,69.40
2023-01-29T18:44:37.963Z,69.10
2023-01-29T18:47:08.827Z,68.80
2023-01-29T18:49:40.382Z,68.70
2023-01-29T18:52:11.511Z,68.70
2023-01-29T18:54:42.759Z,68.90
2023-01-29T18:58:26.372Z,69.10
2023-01-29T18:59:45.500Z,69.10
2023-01-29T19:02:18.169Z,69.00
2023-01-29T19:04:49.592Z,68.40
2023-01-29T19:07:21.488Z,67.90
2023-01-29T19:09:52.271Z,67.70
2023-01-29T19:12:23.720Z,67.30
2023-01-29T19:14:54.571Z,67.10
2023-01-29T19:17:25.409Z,66.90
2023-01-29T19:19:57.580Z,66.70
2023-01-29T19:22:28.426Z,66.40
2023-01-29T19:25:02.374Z,66.60
2023-01-29T19:27:33.192Z,66.70
2023-01-29T19:30:05.265Z,66.90
2023-01-29T19:32:36.399Z,66.70
2023-01-29T19:35:07.658Z,66.70
2023-01-29T19:37:38.457Z,66.80
2023-01-29T19:40:10.217Z,66.80
2023-01-29T19:42:40.961Z,66.80
2023-01-29T19:45:12.489Z,67.00
2023-01-29T19:47:44.752Z,67.00
2023-01-29T19:50:15.443Z,67.30
2023-01-29T19:52:51.475Z,67.50
2023-01-29T19:55:19.259Z,67.40
2023-01-29T19:57:50.506Z,67.60
2023-01-29T20:00:22.527Z,67.60
2023-01-29T20:02:53.335Z,67.50
2023-01-29T20:05:25.109Z,67.50
2023-01-29T20:07:55.981Z,67.40
2023-01-29T20:10:26.638Z,67.40
2023-01-29T20:12:57.501Z,67.40
2023-01-29T20:15:28.310Z,67.40
2023-01-29T20:17:59.981Z,67.60
2023-01-29T20:20:31.206Z,67.70
2023-01-29T20:23:03.311Z,67.80
2023-01-29T20:25:34.015Z,67.90
2023-01-29T20:28:05.988Z,68.10
2023-01-29T20:30:37.675Z,68.00
2023-01-29T20:33:09.387Z,68.10
2023-01-29T20:35:40.630Z,68.00
2023-01-29T20:38:11.307Z,67.90
2023-01-29T20:40:42.009Z,67.70
2023-01-29T20:43:12.911Z,67.40
2023-01-29T20:45:43.779Z,67.20
2023-01-29T20:48:14.590Z,66.80
2023-01-29T20:50:45.809Z,66.90
2023-01-29T20:53:19.563Z,66.40
2023-01-29T20:55:50.658Z,66.40
2023-01-29T20:58:21.882Z,65.70
2023-01-29T21:00:52.930Z,65.10
2023-01-29T21:03:23.782Z,64.60
2023-01-29T21:05:57.380Z,64.00
2023-01-29T21:08:28.153Z,63.30
2023-01-29T21:10:59.014Z,62.60
2023-01-29T21:13:29.715Z,61.40
2023-01-29T21:16:00.993Z,61.40
2023-01-29T21:18:33.380Z,61.60
2023-01-29T21:21:04.085Z,61.20
2023-01-29T21:23:34.904Z,60.70
2023-01-29T21:26:09.810Z,59.70
2023-01-29T21:28:40.708Z,60.30
2023-01-29T21:31:13.166Z,60.50
2023-01-29T21:33:44.241Z,60.70
2023-01-29T21:36:15.465Z,61.40
2023-01-29T21:38:46.245Z,60.10
2023-01-29T21:41:17.096Z,60.10
2023-01-29T21:43:48.138Z,59.60
2023-01-29T21:46:20.945Z,59.10
2023-01-29T21:48:51.703Z,59.20
2023-01-29T21:51:22.384Z,59.10
2023-01-29T21:53:54.054Z,58.90
2023-01-29T21:56:24.998Z,58.80
2023-01-29T21:59:04.233Z,58.80
2023-01-29T22:01:37.571Z,58.60
2023-01-29T22:04:08.708Z,58.60
2023-01-29T22:06:39.558Z,58.40
2023-01-29T22:09:10.346Z,58.40
2023-01-29T22:11:42.703Z,58.60
2023-01-29T22:14:13.491Z,58.50
2023-01-29T22:16:44.264Z,58.60
2023-01-29T22:19:15.708Z,58.70
2023-01-29T22:21:51.969Z,59.00
2023-01-29T22:24:23.570Z,59.50
2023-01-29T22:26:54.337Z,59.90
2023-01-29T22:29:25.045Z,60.20
2023-01-29T22:31:57.251Z,60.60
2023-01-29T22:34:28.484Z,61.10
2023-01-29T22:36:59.171Z,61.40
2023-01-29T22:39:29.835Z,61.80
2023-01-29T22:42:00.801Z,62.20
2023-01-29T22:44:32.741Z,62.60
2023-01-29T22:47:06.481Z,63.00
2023-01-29T22:49:37.263Z,63.00
2023-01-29T22:52:14.836Z,63.30
2023-01-29T22:54:49.876Z,63.50
2023-01-29T22:57:20.943Z,63.60
2023-01-29T22:59:51.645Z,64.20
2023-01-29T23:02:22.605Z,64.40
2023-01-29T23:04:54.535Z,64.50
2023-01-29T23:07:25.445Z,64.80
2023-01-29T23:09:56.143Z,65.30
2023-01-29T23:12:26.904Z,65.40
2023-01-29T23:14:57.630Z,65.80
2023-01-29T23:17:28.375Z,66.30
2023-01-29T23:19:59.054Z,66.60
2023-01-29T23:22:29.813Z,67.00
2023-01-29T23:25:02.186Z,67.30
2023-01-29T23:27:32.962Z,67.90
2023-01-29T23:30:04.646Z,68.30
2023-01-29T23:32:35.650Z,68.50
2023-01-29T23:35:13.920Z,68.10
2023-01-29T23:37:44.639Z,68.30
2023-01-29T23:40:16.390Z,68.70
2023-01-29T23:42:50.988Z,68.80
2023-01-29T23:45:21.783Z,69.30
2023-01-29T23:47:52.487Z,69.20
2023-01-29T23:50:23.267Z,69.50
2023-01-29T23:52:54.165Z,69.90
2023-01-29T23:55:25.030Z,69.70
2023-01-29T23:57:57.195Z,69.60
